Time;durP1;ratioP1;P1;durP2;ratioP2;P2;SDS_P1;SDS_P2;PMS_P1;PMS_P2;Temp;Humidity;BMP_temperature;BMP_pressure;BME280_temperature;BME280_humidity;BME280_pressure;Samples;Min_cycle;Max_cycle;Signal;HPM_P1;HPM_P2
2022/09/01 00:01:41;;;;;;;5.90;4.83;;;;;;;15.56;100.00;99536.56;4968426;28;20289;-87
2022/09/01 00:04:12;;;;;;;4.80;4.40;;;;;;;15.55;100.00;99537.63;4950180;28;20323;-87
2022/09/01 00:06:39;;;;;;;5.03;4.50;;;;;;;15.48;100.00;99531.59;4959062;28;20336;-87
2022/09/01 00:09:12;;;;;;;5.13;4.73;;;;;;;15.45;100.00;99529.38;4975632;28;20259;-87
2022/09/01 00:11:41;;;;;;;4.83;4.40;;;;;;;15.50;100.00;99528.63;4953729;28;20243;-88
2022/09/01 00:14:17;;;;;;;6.00;4.13;;;;;;;15.48;100.00;99519.97;4952369;28;20243;-85
2022/09/01 00:17:04;;;;;;;4.60;4.30;;;;;;;15.56;100.00;99524.94;4964043;28;20672;-86
2022/09/01 00:19:32;;;;;;;4.53;4.23;;;;;;;15.52;100.00;99521.94;4974857;28;20235;-88
2022/09/01 00:24:50;;;;;;;4.50;4.17;;;;;;;15.53;100.00;99520.88;5349349;23;20227;-88
2022/09/01 00:27:17;;;;;;;4.60;4.00;;;;;;;15.41;100.00;99523.69;4996006;28;20319;-86
2022/09/01 00:29:44;;;;;;;5.13;4.20;;;;;;;15.48;100.00;99523.50;4964436;28;20240;-85
2022/09/01 00:32:11;;;;;;;5.33;4.23;;;;;;;15.49;100.00;99518.91;4990813;28;20771;-86
2022/09/01 00:34:38;;;;;;;4.63;4.23;;;;;;;15.55;100.00;99523.31;4980808;28;20231;-86
2022/09/01 00:37:05;;;;;;;4.20;3.80;;;;;;;15.47;100.00;99521.84;4960783;28;20231;-88
2022/09/01 00:39:33;;;;;;;4.47;4.07;;;;;;;15.46;100.00;99527.50;4967241;28;20251;-87
2022/09/01 00:41:59;;;;;;;4.33;4.00;;;;;;;15.58;100.00;99522.81;4949397;28;20726;-87
2022/09/01 00:44:26;;;;;;;5.13;3.93;;;;;;;15.54;100.00;99525.19;4976694;28;20234;-86
2022/09/01 00:46:57;;;;;;;4.30;3.93;;;;;;;15.49;100.00;99522.41;4992285;28;20231;-86
2022/09/01 00:52:35;;;;;;;4.07;3.67;;;;;;;15.53;100.00;99520.06;5050900;23;20233;-88
2022/09/01 00:55:11;;;;;;;5.97;4.23;;;;;;;15.36;100.00;99526.31;4965394;28;20251;-85
2022/09/01 00:57:38;;;;;;;4.10;3.70;;;;;;;15.42;100.00;99521.78;4981198;28;20235;-86
2022/09/01 01:00:18;;;;;;;4.53;3.93;;;;;;;15.39;100.00;99525.00;4991104;28;20258;-86
2022/09/01 01:02:46;;;;;;;4.03;3.73;;;;;;;15.38;100.00;99520.66;4987028;28;20235;-87
2022/09/01 01:05:13;;;;;;;3.87;3.57;;;;;;;15.31;100.00;99528.94;4993499;28;20231;-89
2022/09/01 01:07:43;;;;;;;4.40;3.97;;;;;;;15.35;100.00;99524.69;4986644;28;20231;-90
2022/09/01 01:10:14;;;;;;;4.23;3.80;;;;;;;15.28;100.00;99526.78;4979098;28;20701;-88
2022/09/01 01:12:43;;;;;;;4.53;4.03;;;;;;;15.32;100.00;99519.78;4965902;28;20248;-89
2022/09/01 01:15:11;;;;;;;4.03;3.63;;;;;;;15.31;100.00;99526.25;4974046;28;20752;-88
2022/09/01 01:17:38;;;;;;;4.63;3.50;;;;;;;15.35;100.00;99523.88;4945486;28;20248;-90
2022/09/01 01:26:14;;;;;;;4.20;3.80;;;;;;;15.30;100.00;99515.72;5009657;23;20228;-88
2022/09/01 01:28:43;;;;;;;4.43;3.80;;;;;;;15.28;100.00;99517.84;4981243;28;20232;-86
2022/09/01 01:31:13;;;;;;;4.13;3.53;;;;;;;15.18;100.00;99515.03;4945818;28;20232;-88
2022/09/01 01:33:49;;;;;;;4.33;3.37;;;;;;;15.19;100.00;99516.66;4957359;28;20261;-87
2022/09/01 01:36:29;;;;;;;4.07;3.70;;;;;;;15.15;100.00;99527.16;4946057;28;20224;-88
2022/09/01 01:39:02;;;;;;;5.47;3.70;;;;;;;15.19;100.00;99517.50;4941906;28;20302;-88
2022/09/01 01:41:32;;;;;;;3.90;3.60;;;;;;;15.07;100.00;99514.09;4962503;28;20231;-88
2022/09/01 01:44:03;;;;;;;4.37;3.57;;;;;;;14.96;100.00;99506.97;4962001;28;20235;-88
2022/09/01 01:46:32;;;;;;;4.13;3.57;;;;;;;14.96;100.00;99513.16;4940456;28;20663;-88
2022/09/01 01:49:01;;;;;;;4.13;3.83;;;;;;;14.87;100.00;99513.84;4931725;28;20216;-89
2022/09/01 01:51:30;;;;;;;3.90;3.50;;;;;;;14.83;100.00;99513.53;4962204;28;20326;-89
2022/09/01 01:54:04;;;;;;;4.50;4.10;;;;;;;14.81;100.00;99515.66;4954899;28;20711;-87
2022/09/01 01:56:32;;;;;;;4.23;3.90;;;;;;;14.80;100.00;99511.31;4951371;28;20236;-88
2022/09/01 01:59:00;;;;;;;4.10;3.80;;;;;;;14.72;100.00;99508.25;4970007;28;20274;-89
2022/09/01 02:01:30;;;;;;;4.47;4.17;;;;;;;14.63;100.00;99502.47;4955332;28;20236;-88
2022/09/01 02:03:59;;;;;;;5.60;3.87;;;;;;;14.70;100.00;99504.97;4938980;28;20260;-87
2022/09/01 02:06:27;;;;;;;4.07;3.67;;;;;;;14.69;100.00;99492.56;4935324;28;20257;-87
2022/09/01 02:08:56;;;;;;;4.20;3.80;;;;;;;14.82;100.00;99498.41;4936744;28;20227;-87
2022/09/01 02:11:26;;;;;;;3.87;3.57;;;;;;;14.82;100.00;99500.31;4941793;28;20243;-86
2022/09/01 02:14:12;;;;;;;4.53;3.90;;;;;;;14.87;100.00;99494.97;5033596;23;20236;-82
2022/09/01 02:16:39;;;;;;;3.80;3.50;;;;;;;14.85;100.00;99489.00;4956267;28;20291;-83
2022/09/01 02:19:11;;;;;;;4.00;3.70;;;;;;;14.76;100.00;99491.31;4957521;28;20236;-86
2022/09/01 02:21:52;;;;;;;3.67;3.37;;;;;;;14.81;100.00;99498.66;4920436;28;20235;-86
2022/09/01 02:27:24;;;;;;;4.03;3.63;;;;;;;14.66;100.00;99498.44;5099952;23;20292;-87
2022/09/01 02:29:54;;;;;;;4.00;3.37;;;;;;;14.54;100.00;99495.88;4930671;28;20248;-87
2022/09/01 02:32:21;;;;;;;4.17;3.60;;;;;;;14.59;100.00;99498.66;4947100;28;20786;-86
2022/09/01 02:34:52;;;;;;;4.03;3.73;;;;;;;14.52;100.00;99500.69;4947635;28;20232;-84
2022/09/01 02:37:24;;;;;;;3.90;3.60;;;;;;;14.48;100.00;99499.56;4956268;28;20235;-87
2022/09/01 02:39:57;;;;;;;3.80;3.60;;;;;;;14.46;100.00;99499.78;4911028;28;20726;-86
2022/09/01 02:42:28;;;;;;;4.50;3.83;;;;;;;14.47;100.00;99497.91;4934372;28;20235;-86
2022/09/01 02:44:57;;;;;;;3.50;3.20;;;;;;;14.43;100.00;99500.31;4929408;28;20264;-88
2022/09/01 02:47:27;;;;;;;3.70;3.40;;;;;;;14.38;100.00;99502.91;4908715;29;20236;-89
2022/09/01 02:49:57;;;;;;;3.50;3.23;;;;;;;14.33;100.00;99488.50;4923504;28;20228;-86
2022/09/01 02:52:24;;;;;;;3.73;3.43;;;;;;;14.35;100.00;99491.78;4938057;28;20255;-88
2022/09/01 02:54:51;;;;;;;4.00;3.70;;;;;;;14.37;100.00;99495.88;4920833;28;20689;-89
2022/09/01 02:57:17;;;;;;;4.30;3.90;;;;;;;14.40;100.00;99494.59;4943257;29;20237;-89
2022/09/01 02:59:46;;;;;;;4.37;3.97;;;;;;;14.35;100.00;99487.22;4952583;28;20307;-89
2022/09/01 03:02:12;;;;;;;4.23;3.80;;;;;;;14.32;100.00;99485.03;4938570;28;20823;-88
2022/09/01 03:04:39;;;;;;;4.57;3.50;;;;;;;14.39;100.00;99491.09;4935911;29;20749;-88
2022/09/01 03:07:07;;;;;;;4.00;3.53;;;;;;;14.34;100.00;99482.88;4923613;29;20316;-86
2022/09/01 03:09:34;;;;;;;3.70;3.40;;;;;;;14.38;100.00;99484.06;4953918;29;20229;-87
2022/09/01 03:12:01;;;;;;;3.87;3.27;;;;;;;14.35;100.00;99484.53;4928292;28;20257;-82
2022/09/01 03:14:28;;;;;;;3.70;3.30;;;;;;;14.29;100.00;99479.31;4954466;28;21744;-87
2022/09/01 03:16:56;;;;;;;3.40;3.20;;;;;;;14.26;100.00;99483.31;4938005;29;20283;-87
2022/09/01 03:19:23;;;;;;;3.30;3.00;;;;;;;14.26;100.00;99494.09;4907068;29;20244;-87
2022/09/01 03:21:50;;;;;;;4.57;3.37;;;;;;;14.19;100.00;99490.75;4925561;28;20774;-86
2022/09/01 03:24:21;;;;;;;3.60;3.30;;;;;;;14.22;100.00;99489.44;4909925;29;20266;-87
2022/09/01 03:26:50;;;;;;;3.83;3.40;;;;;;;14.18;100.00;99488.31;4927437;28;20239;-84
2022/09/01 03:29:18;;;;;;;5.43;3.23;;;;;;;14.17;100.00;99487.50;4943599;28;20240;-87
2022/09/01 03:31:45;;;;;;;2.83;2.63;;;;;;;14.11;100.00;99485.78;4929831;29;20264;-87
2022/09/01 03:34:15;;;;;;;3.30;3.10;;;;;;;14.14;100.00;99489.88;4945231;28;20913;-87
2022/09/01 03:36:49;;;;;;;3.53;3.20;;;;;;;14.27;100.00;99484.13;4919995;29;20244;-85
2022/09/01 03:39:26;;;;;;;4.43;3.17;;;;;;;14.23;100.00;99494.56;4924742;28;20239;-86
2022/09/01 03:41:56;;;;;;;3.40;3.10;;;;;;;14.23;100.00;99494.56;4934527;28;20267;-86
2022/09/01 03:44:23;;;;;;;4.40;2.93;;;;;;;14.29;100.00;99490.06;4944968;28;20679;-86
2022/09/01 03:46:51;;;;;;;3.63;3.33;;;;;;;14.21;100.00;99488.63;4942704;28;20644;-86
2022/09/01 03:49:27;;;;;;;3.10;2.80;;;;;;;14.19;100.00;99498.00;4948131;29;20779;-86
2022/09/01 03:51:57;;;;;;;3.70;3.30;;;;;;;14.23;100.00;99496.47;4954560;29;20726;-86
2022/09/01 03:54:29;;;;;;;2.97;2.70;;;;;;;14.22;100.00;99495.66;4920519;29;20273;-86
2022/09/01 03:56:58;;;;;;;2.90;2.70;;;;;;;14.19;100.00;99498.00;4927716;28;20291;-87
2022/09/01 03:59:26;;;;;;;3.30;3.00;;;;;;;14.13;100.00;99499.00;4957688;28;20237;-87
2022/09/01 04:01:56;;;;;;;3.53;3.23;;;;;;;14.13;100.00;99499.81;4932841;28;20279;-87
2022/09/01 04:04:23;;;;;;;5.37;3.20;;;;;;;14.06;100.00;99497.28;4942100;28;20748;-85
2022/09/01 04:06:50;;;;;;;3.50;3.20;;;;;;;14.10;100.00;99487.66;4941971;29;20224;-86
2022/09/01 04:09:16;;;;;;;3.43;3.13;;;;;;;14.24;100.00;99490.81;4941611;29;20228;-86
2022/09/01 04:11:45;;;;;;;5.60;2.80;;;;;;;14.25;100.00;99487.06;4925713;29;20228;-83
2022/09/01 04:14:14;;;;;;;3.10;2.90;;;;;;;14.25;100.00;99478.16;4948030;29;20209;-86
2022/09/01 04:19:48;;;;;;;4.40;3.07;;;;;;;14.32;100.00;99473.44;5031419;23;20248;-84
2022/09/01 04:22:16;;;;;;;4.17;2.90;;;;;;;14.54;100.00;99479.72;4991779;28;20318;-83
2022/09/01 04:24:44;;;;;;;3.67;3.37;;;;;;;14.45;100.00;99482.00;4993804;28;20235;-83
2022/09/01 04:27:12;;;;;;;4.20;3.10;;;;;;;14.41;100.00;99491.66;4981088;28;20232;-83
2022/09/01 04:29:40;;;;;;;3.47;2.90;;;;;;;14.42;100.00;99484.38;5003841;28;20255;-81
2022/09/01 04:32:11;;;;;;;3.43;3.13;;;;;;;14.44;100.00;99484.94;4996689;28;20258;-81
2022/09/01 04:34:42;;;;;;;3.07;2.77;;;;;;;14.60;100.00;99502.16;4976192;28;20223;-81
2022/09/01 04:37:17;;;;;;;3.40;3.10;;;;;;;14.72;100.00;99492.88;4994590;28;20247;-81
2022/09/01 04:39:51;;;;;;;3.63;3.00;;;;;;;14.76;100.00;99493.19;4990884;28;20231;-81
2022/09/01 04:42:23;;;;;;;3.70;3.17;;;;;;;14.77;100.00;99487.56;4984836;28;20310;-84
2022/09/01 04:44:52;;;;;;;3.77;2.90;;;;;;;14.88;100.00;99489.31;4987254;28;20231;-81
2022/09/01 04:50:16;;;;;;;4.47;2.90;;;;;;;15.20;100.00;99492.13;4989013;28;20230;-85
2022/09/01 04:53:05;;;;;;;2.80;2.60;;;;;;;15.30;100.00;99492.22;5007904;23;20260;-84
2022/09/01 04:55:45;;;;;;;3.53;2.63;;;;;;;15.56;100.00;99487.94;4972993;28;20291;-85
2022/09/01 04:58:18;;;;;;;2.70;2.50;;;;;;;15.81;100.00;99496.31;4958219;28;20290;-86
2022/09/01 05:00:54;;;;;;;3.00;2.50;;;;;;;15.98;100.00;99493.47;4986774;28;20726;-86
2022/09/01 05:03:23;;;;;;;3.83;2.50;;;;;;;16.15;100.00;99498.72;4954849;28;20232;-87
2022/09/01 05:06:16;;;;;;;2.90;2.50;;;;;;;16.34;100.00;99504.53;4973354;28;20647;-87
2022/09/01 05:08:48;;;;;;;2.77;2.40;;;;;;;16.61;100.00;99505.31;4980985;28;20588;-87
2022/09/01 05:11:34;;;;;;;2.50;2.30;;;;;;;16.79;100.00;99504.03;4977314;28;20327;-89
2022/09/01 05:14:06;;;;;;;3.17;2.23;;;;;;;16.93;100.00;99503.31;4942728;28;20270;-87
2022/09/01 05:16:34;;;;;;;3.43;2.40;;;;;;;16.90;100.00;99500.28;4962826;28;20279;-87
2022/09/01 05:19:01;;;;;;;4.40;2.67;;;;;;;17.05;100.00;99500.34;4984415;28;20251;-87
2022/09/01 05:21:32;;;;;;;2.40;2.20;;;;;;;17.23;100.00;99507.19;4962834;28;20235;-86
2022/09/01 05:24:00;;;;;;;3.00;2.33;;;;;;;17.14;100.00;99499.59;4983328;28;20239;-87
2022/09/01 05:26:30;;;;;;;2.87;2.30;;;;;;;17.17;100.00;99500.94;4976053;28;20262;-85
2022/09/01 05:29:03;;;;;;;3.93;2.30;;;;;;;17.15;100.00;99501.22;4963228;28;20227;-85
2022/09/01 05:31:33;;;;;;;2.67;2.33;;;;;;;17.07;100.00;99496.31;4961845;28;20323;-84
2022/09/01 05:34:02;;;;;;;2.47;2.10;;;;;;;17.03;100.00;99492.50;4965509;28;20235;-84
2022/09/01 05:36:32;;;;;;;2.33;2.13;;;;;;;17.10;100.00;99494.97;4970470;28;20232;-85
2022/09/01 05:39:00;;;;;;;3.10;2.20;;;;;;;17.14;100.00;99494.16;4964179;28;20231;-87
2022/09/01 05:41:28;;;;;;;2.70;2.00;;;;;;;17.20;100.00;99492.31;4983318;28;20228;-85
2022/09/01 05:43:55;;;;;;;3.50;2.10;;;;;;;17.08;100.00;99492.50;4963309;28;20243;-85
2022/09/01 05:46:27;;;;;;;3.37;2.27;;;;;;;17.29;100.00;99498.81;4974495;28;20230;-85
2022/09/01 05:48:56;;;;;;;2.10;1.90;;;;;;;17.50;100.00;99503.19;4963493;28;20318;-85
2022/09/01 05:51:25;;;;;;;2.30;2.10;;;;;;;17.56;100.00;99504.84;4982499;28;20243;-85
2022/09/01 05:54:10;;;;;;;3.13;2.10;;;;;;;17.72;100.00;99494.88;4970818;28;20215;-87
2022/09/01 05:56:41;;;;;;;3.53;2.10;;;;;;;17.75;100.00;99501.66;5009427;28;20238;-85
2022/09/01 05:59:13;;;;;;;3.00;2.30;;;;;;;17.94;100.00;99495.44;4988243;28;20256;-87
2022/09/01 06:01:51;;;;;;;4.57;2.30;;;;;;;18.28;100.00;99505.72;4980263;28;20239;-86
2022/09/01 06:04:19;;;;;;;3.17;1.80;;;;;;;18.16;100.00;99505.19;4983946;28;20262;-86
2022/09/01 06:06:48;;;;;;;5.07;2.10;;;;;;;18.17;100.00;99506.81;4982782;28;20234;-87
2022/09/01 06:09:40;;;;;;;4.83;2.20;;;;;;;18.32;97.28;99502.22;4974790;28;20238;-87
2022/09/01 06:12:16;;;;;;;2.23;1.70;;;;;;;18.26;100.00;99505.19;4997545;28;20694;-87
2022/09/01 06:14:44;;;;;;;2.87;2.00;;;;;;;18.59;97.19;99506.53;4985030;28;20230;-85
2022/09/01 06:17:15;;;;;;;3.00;2.20;;;;;;;18.70;92.87;99508.94;5005564;28;20318;-86
2022/09/01 06:19:43;;;;;;;3.13;2.30;;;;;;;18.90;90.41;99503.44;4986313;28;20253;-85
2022/09/01 06:22:10;;;;;;;4.53;2.27;;;;;;;19.09;88.68;99505.53;4976702;28;20282;-86
2022/09/01 06:24:39;;;;;;;4.07;1.97;;;;;;;19.31;85.64;99506.81;4966977;28;20314;-87
2022/09/01 06:27:09;;;;;;;2.53;2.00;;;;;;;19.64;86.55;99513.41;4987190;28;20269;-85
2022/09/01 06:29:38;;;;;;;3.33;2.07;;;;;;;19.51;82.78;99511.34;4983671;28;20302;-86
2022/09/01 06:32:09;;;;;;;3.73;2.20;;;;;;;19.77;81.16;99503.84;4977348;28;20251;-87
2022/09/01 06:34:41;;;;;;;4.70;2.10;;;;;;;20.05;78.05;99508.53;4972902;28;20231;-87
2022/09/01 06:37:09;;;;;;;2.27;1.97;;;;;;;19.79;77.83;99507.88;4990492;28;20745;-86
2022/09/01 06:39:37;;;;;;;3.50;2.10;;;;;;;19.59;81.04;99504.50;4984199;28;20614;-86
2022/09/01 06:42:04;;;;;;;3.50;2.10;;;;;;;19.33;85.41;99499.19;4970001;28;20259;-86
2022/09/01 06:44:44;;;;;;;4.90;2.00;;;;;;;19.85;80.48;99505.13;4984443;28;20314;-86
2022/09/01 06:47:11;;;;;;;3.40;2.10;;;;;;;19.46;83.01;99502.41;4982820;28;20315;-84
2022/09/01 06:49:39;;;;;;;3.37;1.90;;;;;;;19.81;83.17;99502.19;4988331;28;20786;-84
2022/09/01 06:52:12;;;;;;;2.63;1.80;;;;;;;19.98;78.97;99508.03;4976719;28;20290;-86
2022/09/01 06:54:42;;;;;;;3.40;2.07;;;;;;;20.16;78.76;99511.94;4988268;28;20250;-86
2022/09/01 06:57:09;;;;;;;2.20;2.00;;;;;;;20.00;78.49;99514.00;4996505;28;20269;-86
2022/09/01 06:59:55;;;;;;;2.13;1.87;;;;;;;19.93;79.93;99508.06;4994750;28;20283;-85
2022/09/01 07:02:23;;;;;;;3.43;1.70;;;;;;;20.18;78.99;99515.22;4977510;28;20231;-87
2022/09/01 07:05:25;;;;;;;3.53;2.07;;;;;;;20.24;76.49;99511.34;4975254;28;20262;-85
2022/09/01 07:08:18;;;;;;;2.57;1.83;;;;;;;20.29;76.22;99510.50;4974215;28;20233;-85
2022/09/01 07:11:06;;;;;;;5.00;1.87;;;;;;;20.49;73.46;99504.88;4970434;28;20253;-86
2022/09/01 07:13:56;;;;;;;4.47;2.13;;;;;;;20.32;76.54;99501.78;4983630;28;20856;-87
2022/09/01 07:16:45;;;;;;;2.27;2.03;;;;;;;20.40;76.00;99499.25;4971356;28;20286;-85
2022/09/01 07:19:19;;;;;;;4.07;2.10;;;;;;;20.45;71.41;99504.66;4979376;28;20236;-87
2022/09/01 07:21:52;;;;;;;4.33;2.00;;;;;;;20.53;72.57;99511.41;4978821;28;20244;-87
2022/09/01 07:24:38;;;;;;;3.33;1.80;;;;;;;20.67;69.74;99513.13;4986226;28;20329;-86
2022/09/01 07:27:47;;;;;;;3.23;1.90;;;;;;;20.78;69.79;99513.84;4940342;29;20675;-86
2022/09/01 07:30:21;;;;;;;2.23;1.70;;;;;;;20.41;64.80;99510.94;4979465;28;20228;-86
2022/09/01 07:32:51;;;;;;;2.47;1.90;;;;;;;20.77;68.39;99514.13;4964356;28;20242;-84
2022/09/01 07:35:21;;;;;;;2.90;1.70;;;;;;;20.41;66.66;99511.75;4963599;28;20237;-85
2022/09/01 07:37:49;;;;;;;2.67;1.40;;;;;;;20.11;65.23;99514.75;4951001;28;20249;-86
2022/09/01 07:40:40;;;;;;;2.33;1.60;;;;;;;20.30;65.74;99518.38;4965626;28;20699;-86
2022/09/01 07:44:04;;;;;;;2.63;1.60;;;;;;;20.26;62.60;99520.03;4996917;28;20313;-84
2022/09/01 07:46:50;;;;;;;3.70;1.50;;;;;;;20.13;64.73;99523.41;4995916;28;20243;-86
2022/09/01 07:49:38;;;;;;;2.57;1.80;;;;;;;20.24;65.26;99522.25;4971037;28;20243;-85
2022/09/01 07:52:25;;;;;;;2.10;1.60;;;;;;;20.40;63.53;99528.38;4993576;28;20689;-84
2022/09/01 07:54:56;;;;;;;2.23;1.50;;;;;;;19.70;63.80;99520.47;4978983;28;20348;-84
2022/09/01 07:57:22;;;;;;;2.07;1.60;;;;;;;19.91;65.69;99532.03;5000764;28;20229;-85
2022/09/01 07:59:54;;;;;;;2.43;1.50;;;;;;;19.82;62.31;99527.47;4962214;28;20258;-84
2022/09/01 08:02:42;;;;;;;2.30;1.80;;;;;;;20.00;70.41;99530.31;5002122;28;20619;-87
2022/09/01 08:05:16;;;;;;;2.67;1.87;;;;;;;20.44;69.43;99534.84;4952644;28;20616;-84
2022/09/01 08:07:46;;;;;;;1.50;1.40;;;;;;;20.52;67.02;99532.34;4980415;28;20237;-84
2022/09/01 08:10:25;;;;;;;2.20;1.47;;;;;;;20.24;58.97;99527.69;4973866;28;20248;-85
2022/09/01 08:12:55;;;;;;;3.17;1.57;;;;;;;20.17;57.73;99522.56;4972750;28;20280;-84
2022/09/01 08:15:23;;;;;;;2.00;1.43;;;;;;;20.53;58.94;99525.78;4964576;28;20644;-87
2022/09/01 08:18:10;;;;;;;3.70;1.67;;;;;;;20.57;56.58;99529.59;4982966;28;20275;-86
2022/09/01 08:20:44;;;;;;;5.40;1.47;;;;;;;20.38;59.45;99534.13;4964601;28;20236;-86
2022/09/01 08:23:31;;;;;;;1.90;1.60;;;;;;;20.63;56.55;99530.31;4984661;28;20237;-85
2022/09/01 08:26:04;;;;;;;1.60;1.50;;;;;;;20.55;57.59;99529.03;4979247;28;20228;-85
2022/09/01 08:28:32;;;;;;;3.00;1.40;;;;;;;20.52;56.21;99528.81;4984161;28;20699;-85
2022/09/01 08:30:59;;;;;;;2.27;1.60;;;;;;;20.54;55.71;99542.94;4964480;28;20325;-85
2022/09/01 08:33:28;;;;;;;3.47;1.53;;;;;;;20.87;53.76;99538.50;4998617;28;20304;-88
2022/09/01 08:35:56;;;;;;;2.77;1.30;;;;;;;20.53;54.62;99531.22;4972411;28;20246;-87
2022/09/01 08:38:23;;;;;;;1.27;1.17;;;;;;;20.58;56.94;99533.09;4978060;28;20233;-86
2022/09/01 08:40:53;;;;;;;1.97;1.53;;;;;;;20.74;55.77;99541.94;4960218;28;20236;-84
2022/09/01 08:43:42;;;;;;;1.63;1.40;;;;;;;20.11;56.65;99533.78;4984068;28;20241;-83
2022/09/01 08:46:36;;;;;;;2.00;1.37;;;;;;;20.36;57.28;99532.75;4986330;28;20236;-86
2022/09/01 08:49:19;;;;;;;1.80;1.27;;;;;;;20.54;56.42;99532.03;4990376;28;20250;-86
2022/09/01 08:52:23;;;;;;;4.17;1.33;;;;;;;20.81;54.04;99528.78;4986636;28;20266;-84
2022/09/01 08:55:01;;;;;;;1.97;1.40;;;;;;;20.77;51.39;99527.72;4974964;28;20315;-84
2022/09/01 08:57:35;;;;;;;1.87;1.37;;;;;;;20.99;49.63;99528.03;4966505;28;20242;-85
2022/09/01 09:00:19;;;;;;;3.53;1.30;;;;;;;21.07;49.81;99521.94;4982290;28;20240;-85
2022/09/01 09:03:07;;;;;;;2.10;1.20;;;;;;;20.71;49.73;99521.56;4960039;28;20268;-83
2022/09/01 09:05:59;;;;;;;3.17;1.57;;;;;;;20.47;49.69;99524.22;4999578;28;20234;-87
2022/09/01 09:08:39;;;;;;;2.37;1.30;;;;;;;20.50;49.08;99520.94;4989178;28;20233;-86
2022/09/01 09:11:25;;;;;;;2.17;1.17;;;;;;;20.68;48.68;99516.66;4965024;28;20249;-86
2022/09/01 09:14:06;;;;;;;2.43;1.20;;;;;;;20.63;49.88;99514.00;4981621;28;20225;-86
2022/09/01 09:16:38;;;;;;;2.80;1.20;;;;;;;20.58;48.14;99512.13;4979424;28;20751;-86
2022/09/01 09:19:09;;;;;;;2.50;1.30;;;;;;;20.84;47.43;99504.50;4966121;28;20239;-86
2022/09/01 09:21:42;;;;;;;3.47;1.30;;;;;;;21.16;47.87;99511.25;4994832;28;20243;-85
2022/09/01 09:24:27;;;;;;;1.43;1.00;;;;;;;21.22;46.28;99512.81;4984118;28;20648;-84
2022/09/01 09:27:04;;;;;;;2.07;0.90;;;;;;;21.25;45.10;99510.31;5006082;28;20224;-85
2022/09/01 09:29:32;;;;;;;1.40;1.07;;;;;;;21.08;44.66;99508.03;4996746;28;20235;-84
2022/09/01 09:32:08;;;;;;;1.40;1.30;;;;;;;21.21;45.72;99503.81;4997681;28;20236;-85
2022/09/01 09:34:55;;;;;;;3.30;1.00;;;;;;;21.20;45.70;99498.66;4997779;28;20268;-84
2022/09/01 09:37:27;;;;;;;1.67;1.10;;;;;;;21.35;45.28;99501.19;4998342;28;20219;-85
2022/09/01 09:40:14;;;;;;;2.03;1.10;;;;;;;21.70;45.11;99513.50;4969147;28;20283;-83
2022/09/01 09:42:55;;;;;;;2.00;1.00;;;;;;;21.43;44.83;99505.97;4982433;28;20238;-85
2022/09/01 09:45:39;;;;;;;1.87;1.13;;;;;;;21.85;43.51;99511.34;5000646;28;20228;-85
2022/09/01 09:48:29;;;;;;;2.00;1.13;;;;;;;21.96;44.21;99512.03;4981788;28;20255;-84
2022/09/01 09:51:15;;;;;;;1.73;1.00;;;;;;;21.79;44.72;99514.47;4972518;28;20264;-84
2022/09/01 09:53:41;;;;;;;1.27;1.13;;;;;;;21.68;44.63;99513.00;5002472;28;20578;-85
2022/09/01 09:56:16;;;;;;;2.03;1.13;;;;;;;22.05;43.17;99493.91;4997405;28;20219;-83
2022/09/01 09:58:46;;;;;;;1.40;1.20;;;;;;;22.24;43.06;99505.56;4995339;28;20754;-84
2022/09/01 10:01:33;;;;;;;3.63;0.97;;;;;;;21.69;42.26;99507.25;4963008;28;20333;-85
2022/09/01 10:04:02;;;;;;;2.80;1.08;;;;;;;22.38;41.22;99503.69;4994667;28;20640;-83
2022/09/01 10:06:31;;;;;;;3.30;1.10;;;;;;;22.48;41.36;99523.72;4998774;28;20247;-85
2022/09/01 10:09:04;;;;;;;1.57;1.20;;;;;;;22.19;40.72;99508.38;5000122;28;20243;-85
2022/09/01 10:11:38;;;;;;;2.37;1.10;;;;;;;22.61;40.21;99499.19;4977598;28;20235;-83
2022/09/01 10:14:15;;;;;;;3.30;1.10;;;;;;;22.91;39.87;99497.78;4976450;28;20266;-84
2022/09/01 10:17:12;;;;;;;2.53;1.00;;;;;;;23.05;39.77;99493.13;4987190;28;20822;-84
2022/09/01 10:19:53;;;;;;;1.50;1.10;;;;;;;23.22;38.79;99489.78;5002389;28;20242;-84
2022/09/01 10:22:21;;;;;;;1.98;1.17;;;;;;;23.32;38.92;99477.84;4981331;28;20229;-83
2022/09/01 10:24:48;;;;;;;2.35;1.10;;;;;;;23.42;38.91;99486.63;4987313;28;20238;-82
2022/09/01 10:27:24;;;;;;;1.13;1.00;;;;;;;23.80;38.91;99497.25;4999364;28;20710;-82
2022/09/01 10:29:54;;;;;;;0.88;0.88;;;;;;;23.73;39.44;99491.41;4999589;28;20285;-83
2022/09/01 10:32:57;;;;;;;1.92;1.33;;;;;;;22.79;40.91;99478.38;4995138;28;20701;-84
2022/09/01 10:35:36;;;;;;;1.20;1.03;;;;;;;23.22;39.83;99490.59;4985004;28;20234;-83
2022/09/01 10:38:09;;;;;;;1.45;0.90;;;;;;;23.75;39.67;99478.25;4977480;28;20230;-83
2022/09/01 10:40:45;;;;;;;2.15;1.20;;;;;;;23.91;39.18;99472.09;5006245;28;20655;-83
2022/09/01 10:43:40;;;;;;;2.80;1.52;;;;;;;23.37;40.89;99478.53;4999070;28;20253;-84
2022/09/01 10:46:41;;;;;;;1.30;1.20;;;;;;;23.72;39.35;99470.66;4990770;28;20323;-84
2022/09/01 10:49:21;;;;;;;2.00;0.90;;;;;;;23.73;39.37;99464.88;4960345;28;20242;-83
2022/09/01 10:51:54;;;;;;;3.17;1.20;;;;;;;23.23;39.44;99466.81;4990077;28;20298;-84
2022/09/01 10:54:40;;;;;;;1.15;0.98;;;;;;;23.55;39.20;99465.84;4986001;28;20259;-83
2022/09/01 10:57:38;;;;;;;6.00;1.15;;;;;;;23.32;38.28;99472.38;4989923;28;20231;-84
2022/09/01 11:00:23;;;;;;;2.55;1.02;;;;;;;23.70;37.90;99465.50;4972467;28;20270;-84
2022/09/01 11:03:32;;;;;;;2.20;1.08;;;;;;;23.49;38.32;99462.41;4993261;28;20243;-83
2022/09/01 11:06:08;;;;;;;2.92;1.20;;;;;;;22.70;40.76;99463.81;4989833;28;20652;-85
2022/09/01 11:08:42;;;;;;;3.63;1.27;;;;;;;22.99;39.54;99458.03;4975620;28;20250;-82
2022/09/01 11:11:41;;;;;;;2.25;1.10;;;;;;;23.50;37.89;99455.84;4957581;28;20678;-83
2022/09/01 11:14:19;;;;;;;1.48;0.90;;;;;;;24.32;37.14;99450.00;4965326;28;20226;-83
2022/09/01 11:17:11;;;;;;;1.50;1.00;;;;;;;24.20;36.98;99468.13;4990962;28;20300;-83
2022/09/01 11:19:44;;;;;;;2.88;1.20;;;;;;;23.39;37.69;99462.63;4975749;28;20228;-84
2022/09/01 11:22:24;;;;;;;2.33;1.30;;;;;;;22.84;37.73;99467.34;4998866;28;20281;-84
2022/09/01 11:25:13;;;;;;;1.55;1.40;;;;;;;23.28;37.20;99467.50;4988568;28;20234;-83
2022/09/01 11:27:48;;;;;;;2.13;1.10;;;;;;;23.43;37.64;99473.75;4982340;28;20232;-83
2022/09/01 11:30:20;;;;;;;2.58;1.10;;;;;;;23.93;36.72;99458.09;5001845;28;20222;-82
2022/09/01 11:32:52;;;;;;;4.43;1.20;;;;;;;24.23;36.14;99462.00;4999978;28;20243;-82
2022/09/01 11:35:21;;;;;;;1.95;1.30;;;;;;;24.78;35.86;99459.69;4980344;28;20595;-82
2022/09/01 11:37:54;;;;;;;3.15;1.08;;;;;;;24.43;36.76;99470.50;4996484;28;20690;-82
2022/09/01 11:40:27;;;;;;;2.35;1.08;;;;;;;22.91;38.20;99472.44;4981504;28;20335;-83
2022/09/01 11:43:03;;;;;;;1.27;0.90;;;;;;;23.21;38.92;99461.66;4978401;28;20242;-83
2022/09/01 11:45:33;;;;;;;2.60;1.02;;;;;;;23.77;37.65;99459.59;4993098;28;20281;-83
2022/09/01 11:48:08;;;;;;;1.65;1.20;;;;;;;23.71;37.78;99461.63;4991816;28;20219;-83
2022/09/01 11:50:38;;;;;;;2.22;1.00;;;;;;;24.22;37.79;99457.66;4975170;28;20231;-83
2022/09/01 11:53:09;;;;;;;1.88;0.85;;;;;;;24.67;36.01;99453.72;4973683;28;20235;-83
2022/09/01 11:55:45;;;;;;;2.60;1.20;;;;;;;23.89;37.52;99455.16;4969430;28;20734;-84
2022/09/01 11:58:27;;;;;;;2.35;0.90;;;;;;;24.11;38.05;99463.38;4992768;28;20231;-83
2022/09/01 12:00:56;;;;;;;2.17;1.00;;;;;;;23.69;38.62;99450.22;4980701;28;20263;-86
2022/09/01 12:03:27;;;;;;;2.40;1.30;;;;;;;24.43;37.76;99451.34;4994635;28;20321;-82
2022/09/01 12:05:58;;;;;;;3.38;1.08;;;;;;;25.06;37.07;99446.56;4976916;28;20716;-83
2022/09/01 12:08:28;;;;;;;2.95;1.20;;;;;;;24.24;36.65;99456.22;4992729;28;20682;-83
2022/09/01 12:11:06;;;;;;;2.00;1.00;;;;;;;23.84;38.00;99455.31;4977603;28;20309;-83
2022/09/01 12:13:34;;;;;;;1.40;1.00;;;;;;;22.67;39.35;99453.47;4980472;28;20239;-83
2022/09/01 12:16:07;;;;;;;2.40;1.15;;;;;;;22.78;38.75;99450.25;4987865;28;20246;-85
2022/09/01 12:18:47;;;;;;;2.85;1.10;;;;;;;23.81;37.37;99446.91;4981355;28;20239;-82
2022/09/01 12:21:24;;;;;;;1.10;1.00;;;;;;;24.05;36.55;99441.91;4981656;28;20239;-84
2022/09/01 12:23:51;;;;;;;1.30;1.02;;;;;;;24.47;37.37;99444.13;4977335;28;21015;-82